KVGT/VGT METAR and TAF weather

Enter ICAO airport designator
Station Type Date Time Source
KVGT METAR 2021/09/23 23:53 UTC NOAA

KVGT 232353Z 00000KT 10SM CLR 35/03 A2984 RMK AO2 SLP094 T03500033 10361 20317 56015


Station Type Date Time Source
KVGT Decoded METAR 2021/09/23 23:53 UTC NOAA

NORTH LAS VEGAS, NV, United States (KVGT) 36-12N 115-11W
Sep 23, 2021 - 07:53 PM EDT / 2021.09.23 2353 UTC
Wind: Calm:0
Visibility: 10 mile(s):0
Sky conditions: clear
Temperature: 95.0 F (35.0 C)
Dew Point: 37.9 F (3.3 C)
Relative Humidity: 13%
Pressure (altimeter): 29.84 in. Hg (1010 hPa)
Pressure tendency: 0.04 inches (1.5 hPa) lower than three hours ago
ob: KVGT 232353Z 00000KT 10SM CLR 35/03 A2984 RMK AO2 SLP094 T03500033 10361 20317 56015
cycle: 0

Station Type Date Time Source
KVGT TAF 2021/09/23 18:30 UTC NOAA

TAF KVGT 231729Z 2318/2418 12006KT 6SM HZ SCT250
FM240300 30007KT 6SM HZ FEW250
FM240700 03007KT P6SM FEW150
FM241700 12007KT P6SM FEW150

Example: see airport list